createdAt,value
2023-09-18T00:00:15.683Z,100272.22
2023-09-18T00:02:59.996Z,100283.70
2023-09-18T00:05:44.870Z,100282.41
2023-09-18T00:08:29.316Z,100283.00
2023-09-18T00:11:02.305Z,100274.44
2023-09-18T00:13:46.715Z,100279.20
2023-09-18T00:16:19.611Z,100278.77
2023-09-18T00:19:02.695Z,100273.27
2023-09-18T00:21:35.968Z,100278.03
2023-09-18T00:24:19.049Z,100279.59
2023-09-18T00:26:53.583Z,100265.35
2023-09-18T00:29:36.524Z,100268.69
2023-09-18T00:32:09.413Z,100267.80
2023-09-18T00:34:53.644Z,100278.20
2023-09-18T00:37:26.783Z,100269.95
2023-09-18T00:39:59.566Z,100277.67
2023-09-18T00:42:42.307Z,100280.47
2023-09-18T00:45:15.109Z,100276.78
2023-09-18T00:48:02.134Z,100280.23
2023-09-18T00:50:34.866Z,100274.75
2023-09-18T00:53:22.040Z,100281.22
2023-09-18T00:55:57.769Z,100253.56
2023-09-18T00:58:42.455Z,100273.55
2023-09-18T01:01:25.706Z,100261.84
2023-09-18T01:04:00.551Z,100255.92
2023-09-18T01:06:46.401Z,100264.22
2023-09-18T01:09:30.561Z,100262.31
2023-09-18T01:12:15.229Z,100259.22
2023-09-18T01:15:06.453Z,100259.39
2023-09-18T01:17:40.057Z,100248.38
2023-09-18T01:20:25.895Z,100244.39
2023-09-18T01:22:58.716Z,100240.33
2023-09-18T01:25:41.472Z,100243.63
2023-09-18T01:28:14.092Z,100219.95
2023-09-18T01:30:58.232Z,100235.41
2023-09-18T01:33:45.688Z,100232.40
2023-09-18T01:36:28.777Z,100245.91
2023-09-18T01:39:01.581Z,100235.30
2023-09-18T01:41:44.932Z,100229.95
2023-09-18T01:44:17.914Z,100230.76
2023-09-18T01:47:06.183Z,100235.72
2023-09-18T01:49:52.018Z,100232.42
2023-09-18T01:52:25.005Z,100219.16
2023-09-18T01:55:10.157Z,100228.44
2023-09-18T01:57:52.713Z,100224.76
2023-09-18T02:00:35.434Z,100227.05
2023-09-18T02:03:12.224Z,100208.89
2023-09-18T02:05:54.799Z,100210.15
2023-09-18T02:08:28.443Z,100211.35
2023-09-18T02:11:10.784Z,100207.88
2023-09-18T02:13:43.508Z,100207.70
2023-09-18T02:16:29.196Z,100209.75
2023-09-18T02:19:12.854Z,100205.23
2023-09-18T02:21:59.197Z,100203.45
2023-09-18T02:24:41.680Z,100203.14
2023-09-18T02:27:27.241Z,100206.16
2023-09-18T02:29:59.843Z,100197.30
2023-09-18T02:32:42.662Z,100205.14
2023-09-18T02:35:25.164Z,100201.09
2023-09-18T02:37:58.887Z,100197.85
2023-09-18T02:40:44.025Z,100209.22
2023-09-18T02:43:16.885Z,100199.45
2023-09-18T02:45:59.348Z,100196.33
2023-09-18T02:48:43.561Z,100192.68
2023-09-18T02:51:16.940Z,100187.29
2023-09-18T02:54:01.096Z,100194.66
2023-09-18T02:56:34.162Z,100193.05
2023-09-18T02:59:16.759Z,100198.81
2023-09-18T03:02:05.630Z,100192.52
2023-09-18T03:04:50.547Z,100206.19
2023-09-18T03:07:34.584Z,100198.62
2023-09-18T03:10:20.566Z,100198.14
2023-09-18T03:12:53.193Z,100191.16
2023-09-18T03:15:38.557Z,100194.08
2023-09-18T03:18:23.242Z,100191.98
2023-09-18T03:21:05.781Z,100197.91
2023-09-18T03:23:38.599Z,100192.08
2023-09-18T03:26:11.589Z,100188.52
2023-09-18T03:28:55.748Z,100199.73
2023-09-18T03:31:30.652Z,100199.73
2023-09-18T03:34:14.930Z,100193.53
2023-09-18T03:36:58.827Z,100194.72
2023-09-18T03:39:32.786Z,100190.02
2023-09-18T03:42:18.850Z,100184.67
2023-09-18T03:44:51.940Z,100190.58
2023-09-18T03:47:36.911Z,100187.34
2023-09-18T03:50:11.019Z,100187.34
2023-09-18T03:52:54.510Z,100201.79
2023-09-18T03:55:29.206Z,100189.96
2023-09-18T03:58:14.616Z,100188.05
2023-09-18T04:01:00.889Z,100201.08
2023-09-18T04:03:33.768Z,100190.07
2023-09-18T04:06:06.398Z,100187.95
2023-09-18T04:08:50.971Z,100211.25
2023-09-18T04:11:35.368Z,100178.61
2023-09-18T04:14:20.680Z,100186.02
2023-09-18T04:16:54.222Z,100177.75
2023-09-18T04:19:39.448Z,100185.70
2023-09-18T04:22:23.116Z,100175.11
2023-09-18T04:25:08.244Z,100189.84
2023-09-18T04:27:54.310Z,100182.33
2023-09-18T04:30:29.069Z,100176.75
2023-09-18T04:33:16.362Z,100181.17
2023-09-18T04:36:00.408Z,100162.89
2023-09-18T04:38:33.504Z,100162.89
2023-09-18T04:41:18.870Z,100176.87
2023-09-18T04:43:52.519Z,100171.97
2023-09-18T04:46:37.193Z,100181.20
2023-09-18T04:49:13.365Z,100178.85
2023-09-18T04:51:58.630Z,100186.82
2023-09-18T04:54:35.132Z,100157.24
2023-09-18T04:57:20.141Z,100177.72
2023-09-18T05:00:01.966Z,100178.19
2023-09-18T05:02:41.429Z,100179.42
2023-09-18T05:05:16.587Z,100174.62
2023-09-18T05:08:00.937Z,100187.77
2023-09-18T05:10:35.962Z,100181.85
2023-09-18T05:13:20.874Z,100186.50
2023-09-18T05:15:54.370Z,100185.23
2023-09-18T05:18:40.689Z,100192.16
2023-09-18T05:21:15.357Z,100188.12
2023-09-18T05:23:50.582Z,100194.66
2023-09-18T05:26:35.437Z,100194.00
2023-09-18T05:29:19.709Z,100195.84
2023-09-18T05:31:53.736Z,100191.19
2023-09-18T05:34:40.439Z,100189.36
2023-09-18T05:37:16.040Z,100201.23
2023-09-18T05:40:01.998Z,100194.89
2023-09-18T05:42:47.666Z,100197.28
2023-09-18T05:45:33.710Z,100192.58
2023-09-18T05:48:16.704Z,100196.36
2023-09-18T05:51:03.433Z,100198.58
2023-09-18T05:53:37.734Z,100186.88
2023-09-18T05:56:23.097Z,100194.70
2023-09-18T05:59:08.174Z,100193.97
2023-09-18T06:01:44.574Z,100186.45
2023-09-18T06:04:28.655Z,100183.25
2023-09-18T06:07:02.293Z,100182.92
2023-09-18T06:09:48.783Z,100181.90
2023-09-18T06:12:33.962Z,100185.49
2023-09-18T06:15:16.977Z,100190.09
2023-09-18T06:17:50.405Z,100189.60
2023-09-18T06:20:35.378Z,100189.24
2023-09-18T06:23:19.103Z,100190.27
2023-09-18T06:25:54.976Z,100192.58
2023-09-18T06:28:41.013Z,100191.41
2023-09-18T06:31:15.671Z,100198.78
2023-09-18T06:34:00.939Z,100203.43
2023-09-18T06:36:35.749Z,100201.09
2023-09-18T06:39:21.650Z,100198.37
2023-09-18T06:41:55.200Z,100203.16
2023-09-18T06:44:42.720Z,100201.56
2023-09-18T06:47:17.492Z,100194.80
2023-09-18T06:50:01.422Z,100202.92
2023-09-18T06:52:46.061Z,100204.62
2023-09-18T06:55:32.953Z,100202.66
2023-09-18T06:58:18.483Z,100211.94
2023-09-18T07:01:03.674Z,100223.77
2023-09-18T07:03:52.397Z,100221.11
2023-09-18T07:06:37.153Z,100225.34
2023-09-18T07:09:21.461Z,100222.34
2023-09-18T07:11:56.018Z,100227.77
2023-09-18T07:14:29.634Z,100229.31
2023-09-18T07:17:15.950Z,100234.47
2023-09-18T07:20:02.751Z,100235.30
2023-09-18T07:22:37.756Z,100236.54
2023-09-18T07:25:25.050Z,100246.78
2023-09-18T07:27:58.460Z,100242.55
2023-09-18T07:30:43.200Z,100248.84
2023-09-18T07:33:26.446Z,100255.23
2023-09-18T07:35:59.943Z,100246.34
2023-09-18T07:38:44.919Z,100258.55
2023-09-18T07:41:30.164Z,100260.13
2023-09-18T07:44:03.742Z,100248.83
2023-09-18T07:46:49.356Z,100252.15
2023-09-18T07:49:23.636Z,100253.49
2023-09-18T07:52:12.055Z,100260.97
2023-09-18T07:54:46.789Z,100263.50
2023-09-18T07:57:32.576Z,100262.30
2023-09-18T08:00:10.164Z,100259.51
2023-09-18T08:03:00.475Z,100251.95
2023-09-18T08:05:35.802Z,100252.27
2023-09-18T08:08:21.892Z,100263.00
2023-09-18T08:10:56.404Z,100249.03
2023-09-18T08:13:40.391Z,100259.98
2023-09-18T08:16:15.426Z,100256.23
2023-09-18T08:19:00.738Z,100266.10
2023-09-18T08:21:35.284Z,100257.33
2023-09-18T08:24:22.037Z,100257.39
2023-09-18T08:26:57.006Z,100264.57
2023-09-18T08:29:48.501Z,100267.73
2023-09-18T08:32:22.786Z,100264.42
2023-09-18T08:35:10.437Z,100258.86
2023-09-18T08:37:44.164Z,100250.24
2023-09-18T08:40:28.989Z,100246.11
2023-09-18T08:43:05.777Z,100235.19
2023-09-18T08:45:57.107Z,100242.45
2023-09-18T08:48:34.705Z,100238.32
2023-09-18T08:51:21.567Z,100237.24
2023-09-18T08:54:08.341Z,100241.02
2023-09-18T08:56:42.766Z,100203.74
2023-09-18T08:59:16.417Z,100232.08
2023-09-18T09:02:04.031Z,100236.43
2023-09-18T09:04:50.442Z,100252.11
2023-09-18T09:07:25.253Z,100251.98
2023-09-18T09:10:12.768Z,100251.25
2023-09-18T09:12:56.219Z,100249.91
2023-09-18T09:15:51.815Z,100262.31
2023-09-18T09:18:27.506Z,100253.98
2023-09-18T09:21:13.570Z,100258.08
2023-09-18T09:23:57.843Z,100262.00
2023-09-18T09:26:45.499Z,100276.61
2023-09-18T09:29:27.472Z,100269.92
2023-09-18T09:32:19.690Z,100282.50
2023-09-18T09:34:54.424Z,100269.33
2023-09-18T09:37:41.069Z,100283.77
2023-09-18T09:40:15.834Z,100288.83
2023-09-18T09:43:04.260Z,100288.31
2023-09-18T09:45:38.042Z,100276.14
2023-09-18T09:48:23.722Z,100276.73
2023-09-18T09:51:01.436Z,100267.27
2023-09-18T09:53:49.726Z,100266.45
2023-09-18T09:56:49.824Z,100254.11
2023-09-18T09:59:25.704Z,100257.86
2023-09-18T10:02:04.144Z,100252.97
2023-09-18T10:04:49.995Z,100263.19
2023-09-18T10:07:24.483Z,100267.87
2023-09-18T10:09:58.664Z,100272.62
2023-09-18T10:12:46.902Z,100276.81
2023-09-18T10:15:35.332Z,100279.47
2023-09-18T10:18:46.575Z,100279.70
2023-09-18T10:21:57.739Z,100272.30
2023-09-18T10:24:34.780Z,100278.47
2023-09-18T10:27:23.737Z,100285.14
2023-09-18T10:30:01.328Z,100273.44
2023-09-18T10:32:38.738Z,100265.01
2023-09-18T10:35:27.364Z,100267.31
2023-09-18T10:38:15.799Z,100270.03
2023-09-18T10:41:06.340Z,100264.98
2023-09-18T10:43:51.335Z,100273.33
2023-09-18T10:46:36.906Z,100273.00
2023-09-18T10:49:25.421Z,100269.41
2023-09-18T10:52:19.489Z,100268.08
2023-09-18T10:55:11.529Z,100265.03
2023-09-18T10:57:55.473Z,100268.98
2023-09-18T11:00:45.150Z,100261.69
2023-09-18T11:03:20.332Z,100259.62
2023-09-18T11:06:08.600Z,100249.06
2023-09-18T11:08:55.089Z,100252.50
2023-09-18T11:11:39.871Z,100262.52
2023-09-18T11:14:24.698Z,100258.23
2023-09-18T11:16:59.797Z,100256.17
2023-09-18T11:19:51.354Z,100263.66
2023-09-18T11:22:25.834Z,100262.17
2023-09-18T11:25:37.008Z,100258.33
2023-09-18T11:28:34.853Z,100259.00
2023-09-18T11:31:07.333Z,100256.27
2023-09-18T11:33:56.555Z,100271.74
2023-09-18T11:36:34.779Z,100266.67
2023-09-18T11:39:40.286Z,100277.06
2023-09-18T11:42:26.980Z,100277.13
2023-09-18T11:45:01.126Z,100275.49
2023-09-18T11:47:48.838Z,100275.76
2023-09-18T11:50:24.042Z,100282.13
2023-09-18T11:53:10.700Z,100284.04
2023-09-18T11:55:46.221Z,100275.09
2023-09-18T11:58:31.414Z,100284.26
2023-09-18T12:01:24.039Z,100286.22
2023-09-18T12:03:59.519Z,100275.25
2023-09-18T12:06:45.061Z,100285.48
2023-09-18T12:09:35.792Z,100278.72
2023-09-18T12:12:11.356Z,100273.89
2023-09-18T12:14:58.459Z,100275.88
2023-09-18T12:17:36.720Z,100277.16
2023-09-18T12:20:22.651Z,100276.98
2023-09-18T12:22:56.016Z,100275.27
2023-09-18T12:25:47.229Z,100277.93
2023-09-18T12:28:34.352Z,100271.74
2023-09-18T12:31:10.981Z,100279.41
2023-09-18T12:33:50.068Z,100282.20
2023-09-18T12:36:40.153Z,100283.91
2023-09-18T12:39:39.656Z,100282.47
2023-09-18T12:42:14.154Z,100271.43
2023-09-18T12:45:04.914Z,100280.94
2023-09-18T12:47:43.085Z,100282.45
2023-09-18T12:50:31.173Z,100279.41
2023-09-18T12:53:18.282Z,100287.70
2023-09-18T12:56:19.065Z,100286.34
2023-09-18T12:59:10.360Z,100282.36
2023-09-18T13:01:51.195Z,100284.41
2023-09-18T13:04:42.181Z,100284.05
2023-09-18T13:07:32.778Z,100284.00
2023-09-18T13:10:21.184Z,100291.42
2023-09-18T13:12:59.472Z,100281.45
2023-09-18T13:15:36.885Z,100281.45
2023-09-18T13:18:32.876Z,100287.20
2023-09-18T13:21:22.481Z,100287.12
2023-09-18T13:24:12.873Z,100292.63
2023-09-18T13:26:55.917Z,100277.68
2023-09-18T13:29:43.639Z,100281.48
2023-09-18T13:32:58.455Z,100279.20
2023-09-18T13:35:33.460Z,100274.88
2023-09-18T13:38:28.296Z,100290.67
2023-09-18T13:41:16.722Z,100284.65
2023-09-18T13:43:53.344Z,100281.48
2023-09-18T13:46:54.871Z,100280.19
2023-09-18T13:49:36.830Z,100278.02
2023-09-18T13:52:23.037Z,100274.52
2023-09-18T13:55:14.479Z,100273.92
2023-09-18T13:58:06.110Z,100275.05
2023-09-18T14:03:57.038Z,100265.66
2023-09-18T14:06:35.404Z,100254.45
2023-09-18T14:09:24.002Z,100254.64
2023-09-18T14:12:02.498Z,100252.78
2023-09-18T14:15:07.769Z,100252.54
2023-09-18T14:17:42.226Z,100252.92
2023-09-18T14:20:32.980Z,100256.19
2023-09-18T14:23:21.971Z,100252.45
2023-09-18T14:25:58.149Z,100240.83
2023-09-18T14:28:52.202Z,100253.13
2023-09-18T14:31:41.600Z,100247.67
2023-09-18T14:34:32.170Z,100250.22
2023-09-18T14:37:15.327Z,100246.44
2023-09-18T14:40:07.331Z,100246.09
2023-09-18T14:42:54.372Z,100241.77
2023-09-18T14:45:41.880Z,100250.87
2023-09-18T14:48:37.094Z,100246.00
2023-09-18T14:51:13.342Z,100246.95
2023-09-18T14:53:59.997Z,100250.48
2023-09-18T14:56:33.824Z,100255.78
2023-09-18T14:59:35.587Z,100259.23
2023-09-18T15:02:16.417Z,100257.94
2023-09-18T15:05:05.891Z,100258.77
2023-09-18T15:07:49.670Z,100256.86
2023-09-18T15:10:38.079Z,100257.25
2023-09-18T15:13:26.079Z,100256.09
2023-09-18T15:16:01.330Z,100255.09
2023-09-18T15:18:47.775Z,100263.14
2023-09-18T15:21:23.139Z,100259.55
2023-09-18T15:24:08.926Z,100266.55
2023-09-18T15:26:57.132Z,100268.25
2023-09-18T15:29:35.662Z,100266.52
2023-09-18T15:32:21.553Z,100267.07
2023-09-18T15:34:56.008Z,100258.66
2023-09-18T15:37:42.376Z,100267.37
2023-09-18T15:40:22.520Z,100279.25
2023-09-18T15:43:08.976Z,100283.46
2023-09-18T15:45:46.038Z,100276.60
2023-09-18T15:48:32.668Z,100282.55
2023-09-18T15:51:18.360Z,100275.42
2023-09-18T15:53:55.178Z,100273.76
2023-09-18T15:57:01.041Z,100273.38
2023-09-18T15:59:37.138Z,100274.40
2023-09-18T16:02:17.330Z,100277.45
2023-09-18T16:05:12.028Z,100277.72
2023-09-18T16:07:52.254Z,100271.72
2023-09-18T16:10:38.916Z,100283.12
2023-09-18T16:13:12.486Z,100276.18
2023-09-18T16:15:58.222Z,100282.39
2023-09-18T16:18:32.239Z,100277.72
2023-09-18T16:21:06.383Z,100276.11
2023-09-18T16:23:54.427Z,100276.48
2023-09-18T16:26:27.945Z,100276.48
2023-09-18T16:29:01.502Z,100274.79
2023-09-18T16:31:46.631Z,100281.00
2023-09-18T16:34:38.477Z,100284.70
2023-09-18T16:37:22.155Z,100278.77
2023-09-18T16:39:56.643Z,100257.89
2023-09-18T16:42:48.065Z,100275.83
2023-09-18T16:45:36.213Z,100281.69
2023-09-18T16:48:23.148Z,100275.81
2023-09-18T16:50:58.681Z,100277.33
2023-09-18T16:53:45.101Z,100256.22
2023-09-18T16:56:31.216Z,100269.98
2023-09-18T16:59:08.094Z,100269.98
2023-09-18T17:01:54.740Z,100277.13
2023-09-18T17:07:23.828Z,100247.72
2023-09-18T17:10:13.552Z,100278.52
2023-09-18T17:13:04.228Z,100283.20
2023-09-18T17:15:39.160Z,100281.95
2023-09-18T17:18:32.532Z,100284.52
2023-09-18T17:21:21.416Z,100283.33
2023-09-18T17:24:09.963Z,100284.95
2023-09-18T17:26:48.580Z,100272.94
2023-09-18T17:29:36.838Z,100282.44
2023-09-18T17:32:11.516Z,100276.69
2023-09-18T17:34:59.912Z,100281.74
2023-09-18T17:37:51.200Z,100281.66
2023-09-18T17:40:39.622Z,100288.46
2023-09-18T17:43:28.179Z,100296.76
2023-09-18T17:46:12.474Z,100294.18
2023-09-18T17:48:58.573Z,100296.03
2023-09-18T17:51:33.159Z,100297.89
2023-09-18T17:54:18.220Z,100299.62
2023-09-18T17:57:01.666Z,100297.19
2023-09-18T17:59:48.402Z,100294.02
2023-09-18T18:02:33.815Z,100303.70
2023-09-18T18:05:08.796Z,100297.89
2023-09-18T18:07:58.534Z,100310.96
2023-09-18T18:10:48.242Z,100307.55
2023-09-18T18:13:21.223Z,100298.80
2023-09-18T18:16:07.867Z,100312.57
2023-09-18T18:18:41.431Z,100315.73
2023-09-18T18:21:15.110Z,100313.20
2023-09-18T18:24:01.372Z,100316.66
2023-09-18T18:26:44.880Z,100310.63
2023-09-18T18:29:17.529Z,100309.13
2023-09-18T18:32:04.119Z,100314.21
2023-09-18T18:34:38.194Z,100301.62
2023-09-18T18:37:24.317Z,100302.55
2023-09-18T18:40:13.552Z,100307.94
2023-09-18T18:43:03.591Z,100308.09
2023-09-18T18:45:54.342Z,100307.52
2023-09-18T18:48:39.452Z,100307.75
2023-09-18T18:51:18.846Z,100294.91
2023-09-18T18:54:04.740Z,100304.53
2023-09-18T18:56:41.495Z,100303.12
2023-09-18T18:59:27.013Z,100295.09
2023-09-18T19:02:11.834Z,100297.80
2023-09-18T19:04:56.528Z,100298.83
2023-09-18T19:07:29.347Z,100294.52
2023-09-18T19:10:02.090Z,100299.79
2023-09-18T19:12:48.452Z,100297.22
2023-09-18T19:15:23.061Z,100294.63
2023-09-18T19:18:07.514Z,100297.14
2023-09-18T19:20:40.711Z,100290.27
2023-09-18T19:23:20.543Z,100292.45
2023-09-18T19:26:02.389Z,100287.68
2023-09-18T19:28:47.171Z,100288.35
2023-09-18T19:31:25.032Z,100290.49
2023-09-18T19:34:18.688Z,100290.82
2023-09-18T19:37:09.044Z,100297.71
2023-09-18T19:39:41.885Z,100291.86
2023-09-18T19:42:26.566Z,100285.63
2023-09-18T19:45:01.434Z,100289.47
2023-09-18T19:47:49.646Z,100291.27
2023-09-18T19:50:36.412Z,100290.57
2023-09-18T19:53:23.540Z,100292.02
2023-09-18T19:56:34.145Z,100294.06
2023-09-18T19:59:23.323Z,100291.27
2023-09-18T20:05:27.124Z,100292.09
2023-09-18T20:07:59.943Z,100290.97
2023-09-18T20:10:44.829Z,100294.30
2023-09-18T20:13:17.805Z,100294.00
2023-09-18T20:16:03.464Z,100300.09
2023-09-18T20:18:47.886Z,100296.79
2023-09-18T20:21:22.620Z,100291.99
2023-09-18T20:24:08.245Z,100298.75
2023-09-18T20:26:42.527Z,100293.69
2023-09-18T20:29:26.915Z,100295.09
2023-09-18T20:32:12.994Z,100298.75
2023-09-18T20:34:47.462Z,100294.00
2023-09-18T20:37:32.192Z,100294.74
2023-09-18T20:40:05.332Z,100282.95
2023-09-18T20:42:47.939Z,100290.22
2023-09-18T20:45:34.616Z,100285.81
2023-09-18T20:48:18.763Z,100292.97
2023-09-18T20:50:53.103Z,100283.73
2023-09-18T20:53:38.361Z,100289.00
2023-09-18T20:56:11.500Z,100287.78
2023-09-18T20:58:58.356Z,100290.46
2023-09-18T21:01:31.943Z,100293.81
2023-09-18T21:04:17.035Z,100294.08
2023-09-18T21:07:01.704Z,100298.68
2023-09-18T21:09:45.967Z,100298.01
2023-09-18T21:12:20.641Z,100292.43
2023-09-18T21:15:04.082Z,100290.49
2023-09-18T21:17:49.804Z,100295.09
2023-09-18T21:20:24.060Z,100283.41
2023-09-18T21:23:08.384Z,100290.59
2023-09-18T21:25:54.271Z,100294.91
2023-09-18T21:28:27.860Z,100289.84
2023-09-18T21:31:14.671Z,100293.27
2023-09-18T21:34:00.221Z,100291.41
2023-09-18T21:36:32.957Z,100294.31
2023-09-18T21:39:16.234Z,100302.81
2023-09-18T21:41:49.453Z,100290.92
2023-09-18T21:44:34.292Z,100300.48
2023-09-18T21:47:18.933Z,100298.94
2023-09-18T21:50:04.950Z,100309.62
2023-09-18T21:52:54.929Z,100300.19
2023-09-18T21:55:27.790Z,100292.17
2023-09-18T21:58:12.454Z,100296.31
2023-09-18T22:00:45.692Z,100300.06
2023-09-18T22:03:31.626Z,100301.73
2023-09-18T22:06:06.206Z,100300.55
2023-09-18T22:08:49.718Z,100301.66
2023-09-18T22:11:34.966Z,100302.52
2023-09-18T22:14:20.754Z,100309.62
2023-09-18T22:16:53.581Z,100298.06
2023-09-18T22:19:38.687Z,100296.57
2023-09-18T22:22:23.434Z,100303.69
2023-09-18T22:24:56.008Z,100301.37
2023-09-18T22:27:40.336Z,100310.91
2023-09-18T22:30:23.259Z,100299.50
2023-09-18T22:33:08.153Z,100297.89
2023-09-18T22:35:41.095Z,100294.67
2023-09-18T22:38:33.026Z,100296.59
2023-09-18T22:41:17.204Z,100310.72
2023-09-18T22:44:27.626Z,100297.66
2023-09-18T22:47:47.279Z,100300.03
2023-09-18T22:51:05.767Z,100307.78
2023-09-18T22:53:47.108Z,100301.50
2023-09-18T22:56:31.536Z,100298.80
2023-09-18T22:59:16.974Z,100292.35
2023-09-18T23:01:49.837Z,100295.70
2023-09-18T23:04:32.314Z,100299.49
2023-09-18T23:07:07.387Z,100297.77
2023-09-18T23:09:52.450Z,100294.59
2023-09-18T23:12:27.934Z,100294.91
2023-09-18T23:15:17.674Z,100297.73
2023-09-18T23:18:01.938Z,100291.45
2023-09-18T23:20:36.968Z,100285.41
2023-09-18T23:23:23.056Z,100301.59
2023-09-18T23:26:09.757Z,100297.86
2023-09-18T23:28:52.309Z,100294.28
2023-09-18T23:31:25.295Z,100300.64
2023-09-18T23:34:09.760Z,100298.32
2023-09-18T23:36:43.337Z,100294.78
2023-09-18T23:39:29.232Z,100295.17
2023-09-18T23:42:03.709Z,100290.11
2023-09-18T23:44:49.241Z,100296.62
2023-09-18T23:47:21.902Z,100292.58
2023-09-18T23:50:08.493Z,100291.06
2023-09-18T23:52:42.979Z,100293.20
2023-09-18T23:55:27.868Z,100292.68
2023-09-18T23:58:12.851Z,100297.13
